Time;durP1;ratioP1;P1;durP2;ratioP2;P2;SDS_P1;SDS_P2;PMS_P1;PMS_P2;Temp;Humidity;BMP_temperature;BMP_pressure;BME280_temperature;BME280_humidity;BME280_pressure;Samples;Min_cycle;Max_cycle;Signal;HPM_P1;HPM_P2
2022/11/05 00:09:59;;;;;;;18.98;6.20;;;4.10;99.90;;;;;;5026229;28;20486;-42
2022/11/05 00:17:53;;;;;;;27.85;6.60;;;4.60;99.90;;;;;;5026168;28;20103;-43
2022/11/05 00:20:19;;;;;;;22.83;6.80;;;4.80;99.90;;;;;;5026148;28;20045;-42
2022/11/05 00:25:29;;;;;;;23.05;5.20;;;5.00;99.90;;;;;;5028037;28;20407;-44
2022/11/05 00:28:00;;;;;;;17.30;4.88;;;5.10;99.90;;;;;;5026377;28;20219;-43
2022/11/05 00:30:26;;;;;;;17.02;5.07;;;5.40;99.90;;;;;;5027857;28;20049;-42
2022/11/05 00:32:52;;;;;;;12.68;5.03;;;5.30;99.90;;;;;;5027155;28;20045;-42
2022/11/05 00:35:20;;;;;;;14.68;4.40;;;5.20;99.90;;;;;;5027611;28;20117;-42
2022/11/05 00:37:46;;;;;;;22.13;5.40;;;5.20;99.90;;;;;;5027813;28;20394;-42
2022/11/05 00:40:13;;;;;;;16.08;4.47;;;5.20;99.90;;;;;;5027406;28;20045;-42
2022/11/05 00:45:28;;;;;;;12.60;3.42;;;5.10;99.90;;;;;;5027883;28;20099;-41
2022/11/05 00:50:39;;;;;;;6.68;2.55;;;4.90;99.90;;;;;;5027742;28;20131;-41
2022/11/05 00:53:05;;;;;;;10.70;3.55;;;4.70;99.90;;;;;;5027312;28;20053;-43
2022/11/05 00:55:33;;;;;;;17.38;3.47;;;4.60;99.90;;;;;;5027495;28;20049;-42
2022/11/05 00:57:59;;;;;;;10.95;2.95;;;4.50;99.90;;;;;;5026988;28;20073;-42
2022/11/05 01:00:28;;;;;;;11.50;3.00;;;4.50;99.90;;;;;;5027024;28;20499;-42
2022/11/05 01:02:57;;;;;;;11.65;2.60;;;4.70;99.90;;;;;;5027537;28;20052;-42
2022/11/05 01:05:23;;;;;;;9.13;2.10;;;4.50;99.90;;;;;;5026885;28;20050;-41
2022/11/05 01:07:51;;;;;;;12.30;3.38;;;4.60;99.90;;;;;;5027153;28;20048;-42
2022/11/05 01:10:17;;;;;;;12.25;2.17;;;4.50;99.90;;;;;;5027225;28;20041;-42
2022/11/05 01:12:43;;;;;;;10.63;3.20;;;4.40;99.90;;;;;;5027607;28;20049;-42
2022/11/05 01:15:09;;;;;;;9.88;1.98;;;4.40;99.90;;;;;;5027265;28;20846;-42
2022/11/05 01:17:34;;;;;;;10.48;1.80;;;4.30;99.90;;;;;;5027523;28;20483;-42
2022/11/05 01:20:00;;;;;;;7.47;2.10;;;4.30;99.90;;;;;;5027245;28;20045;-42
2022/11/05 01:22:26;;;;;;;7.65;1.92;;;4.20;99.90;;;;;;5027206;28;20232;-41
2022/11/05 01:24:51;;;;;;;9.52;1.70;;;4.40;99.90;;;;;;5027413;28;20052;-43
2022/11/05 01:27:17;;;;;;;7.03;1.50;;;4.10;99.90;;;;;;5027409;28;20068;-42
2022/11/05 01:29:43;;;;;;;13.50;2.00;;;4.20;99.90;;;;;;5027356;28;20091;-43
2022/11/05 01:32:08;;;;;;;5.88;1.73;;;4.80;99.90;;;;;;5026917;28;20045;-41
2022/11/05 01:34:34;;;;;;;12.02;1.80;;;4.10;99.90;;;;;;5027186;28;20129;-42
2022/11/05 01:37:00;;;;;;;9.82;1.63;;;4.00;99.90;;;;;;5027326;28;20124;-42
2022/11/05 01:39:25;;;;;;;8.27;2.15;;;4.00;99.90;;;;;;5026924;28;20072;-42
2022/11/05 01:41:51;;;;;;;12.77;1.45;;;3.90;99.90;;;;;;5027024;28;20454;-41
2022/11/05 01:44:50;;;;;;;14.25;3.10;;;3.90;99.90;;;;;;5026829;28;20053;-41
2022/11/05 01:47:38;;;;;;;15.63;2.20;;;3.80;99.90;;;;;;5024825;28;20590;-43
2022/11/05 01:50:16;;;;;;;11.00;3.15;;;3.90;99.90;;;;;;5026764;28;20104;-42
2022/11/05 01:52:42;;;;;;;11.70;2.30;;;3.80;99.90;;;;;;5026657;28;20045;-42
2022/11/05 01:55:09;;;;;;;12.32;1.90;;;3.80;99.90;;;;;;5027182;28;20468;-42
2022/11/05 01:57:34;;;;;;;10.40;2.30;;;3.80;99.90;;;;;;5026480;28;20045;-42
2022/11/05 02:00:01;;;;;;;9.27;1.77;;;3.80;99.90;;;;;;5026399;28;20053;-42
2022/11/05 02:02:27;;;;;;;12.20;1.60;;;3.80;99.90;;;;;;5026482;28;20107;-42
2022/11/05 02:04:57;;;;;;;10.52;2.08;;;3.80;99.90;;;;;;5026697;28;20050;-45
2022/11/05 02:07:25;;;;;;;15.05;3.25;;;3.80;99.90;;;;;;5026677;28;20049;-43
2022/11/05 02:10:03;;;;;;;13.90;2.30;;;3.70;99.90;;;;;;5029434;28;20766;-43
2022/11/05 02:12:29;;;;;;;11.57;2.75;;;3.70;99.90;;;;;;5030240;28;20438;-42
2022/11/05 02:14:56;;;;;;;11.18;2.90;;;3.70;99.90;;;;;;5030564;28;20096;-41
2022/11/05 02:17:28;;;;;;;11.57;2.78;;;3.60;99.90;;;;;;5030299;28;20387;-42
2022/11/05 02:20:06;;;;;;;15.50;2.67;;;3.60;99.90;;;;;;5030346;28;20045;-42
2022/11/05 02:22:50;;;;;;;14.70;2.78;;;3.60;99.90;;;;;;5029990;28;20513;-42
2022/11/05 02:25:40;;;;;;;12.73;3.17;;;3.60;99.90;;;;;;5030121;28;20137;-43
2022/11/05 02:28:35;;;;;;;17.90;3.90;;;3.50;99.90;;;;;;5030534;28;20056;-43
2022/11/05 02:31:09;;;;;;;10.43;3.10;;;3.50;99.90;;;;;;5010053;28;20052;-43
2022/11/05 02:33:46;;;;;;;13.45;3.42;;;3.50;99.90;;;;;;5029871;28;20056;-42
2022/11/05 02:36:24;;;;;;;17.25;3.58;;;4.00;99.90;;;;;;5029666;28;20487;-42
2022/11/05 02:39:08;;;;;;;16.08;5.00;;;3.50;99.90;;;;;;5030096;28;20041;-41
2022/11/05 02:41:49;;;;;;;17.73;3.22;;;3.40;99.90;;;;;;5029549;28;20498;-43
2022/11/05 02:44:34;;;;;;;18.00;4.05;;;3.40;99.90;;;;;;5029671;28;20537;-42
2022/11/05 02:47:18;;;;;;;19.02;4.18;;;3.30;99.90;;;;;;5029991;28;20402;-43
2022/11/05 02:50:13;;;;;;;22.15;4.60;;;3.30;99.90;;;;;;5029435;28;20136;-41
2022/11/05 02:52:45;;;;;;;14.45;4.22;;;3.30;99.90;;;;;;5029807;28;20033;-42
2022/11/05 02:55:24;;;;;;;;;;;3.20;99.90;;;;;;5030486;28;20049;-42
2022/11/05 02:57:50;;;;;;;16.33;4.30;;;3.20;99.90;;;;;;5029701;28;19921;-42
2022/11/05 03:00:39;;;;;;;20.35;4.85;;;3.20;99.90;;;;;;5029338;28;20448;-42
2022/11/05 03:03:10;;;;;;;11.93;3.80;;;3.10;99.90;;;;;;5029808;28;20092;-42
2022/11/05 03:05:49;;;;;;;17.87;5.60;;;3.10;99.90;;;;;;5029585;28;20450;-41
2022/11/05 03:08:48;;;;;;;14.90;4.68;;;3.10;99.90;;;;;;5029905;28;20462;-42
2022/11/05 03:11:20;;;;;;;23.33;4.65;;;3.10;99.90;;;;;;5019405;28;20046;-41
2022/11/05 03:14:11;;;;;;;14.95;4.72;;;3.20;99.90;;;;;;5030383;28;20394;-41
2022/11/05 03:16:43;;;;;;;23.65;6.22;;;3.20;99.90;;;;;;5019952;28;20041;-42
2022/11/05 03:19:23;;;;;;;19.13;4.93;;;3.00;99.90;;;;;;5030240;28;20033;-42
2022/11/05 03:22:06;;;;;;;20.73;6.20;;;3.20;99.90;;;;;;5029196;28;20103;-41
2022/11/05 03:24:35;;;;;;;15.80;5.40;;;3.30;99.90;;;;;;5029689;28;20056;-41
2022/11/05 03:27:14;;;;;;;21.80;5.35;;;3.30;99.90;;;;;;5029759;28;20046;-42
2022/11/05 03:29:51;;;;;;;25.77;5.43;;;3.30;99.90;;;;;;5029547;28;20117;-42
2022/11/05 03:32:19;;;;;;;22.45;5.97;;;3.30;99.90;;;;;;5029937;28;20049;-43
2022/11/05 03:34:59;;;;;;;21.95;5.25;;;3.30;99.90;;;;;;5029484;28;20041;-42
2022/11/05 03:37:27;;;;;;;19.45;5.72;;;3.30;99.90;;;;;;5029775;28;20042;-43
2022/11/05 03:39:57;;;;;;;23.83;5.93;;;3.30;99.90;;;;;;5029555;28;20124;-43
2022/11/05 03:42:27;;;;;;;20.83;5.05;;;3.30;99.90;;;;;;5029137;28;20056;-43
2022/11/05 03:44:56;;;;;;;20.63;5.07;;;3.30;99.90;;;;;;5029402;28;20045;-46
2022/11/05 03:47:28;;;;;;;20.33;4.88;;;3.30;99.90;;;;;;5028981;28;20565;-45
2022/11/05 03:49:56;;;;;;;12.18;4.60;;;3.20;99.90;;;;;;5028988;28;20167;-42
2022/11/05 03:52:27;;;;;;;15.02;4.80;;;3.20;99.90;;;;;;5028824;28;20041;-44
2022/11/05 03:54:53;;;;;;;14.18;4.95;;;3.30;99.90;;;;;;5028453;28;20045;-42
2022/11/05 03:57:26;;;;;;;15.60;5.13;;;3.30;99.90;;;;;;5028552;28;20033;-44
2022/11/05 03:59:52;;;;;;;17.48;5.20;;;3.30;99.90;;;;;;5028195;28;20064;-44
2022/11/05 04:02:20;;;;;;;19.23;4.82;;;3.40;99.90;;;;;;5028615;28;20033;-43
2022/11/05 04:04:46;;;;;;;20.33;5.43;;;3.40;99.90;;;;;;5028685;28;20081;-46
2022/11/05 04:15:26;;;;;;;17.00;5.47;;;3.30;99.90;;;;;;5027561;28;20513;-42
2022/11/05 04:17:51;;;;;;;22.20;6.28;;;3.30;99.90;;;;;;5027755;28;20430;-42
2022/11/05 04:25:49;;;;;;;23.50;6.68;;;3.20;99.90;;;;;;5027577;28;20088;-42
2022/11/05 04:28:15;;;;;;;22.60;6.15;;;3.50;99.90;;;;;;5028160;28;20045;-46
2022/11/05 04:30:43;;;;;;;17.45;6.38;;;3.50;99.90;;;;;;5027888;28;20091;-42
2022/11/05 04:33:16;;;;;;;22.98;7.35;;;3.50;99.90;;;;;;5027554;28;20068;-42
2022/11/05 04:35:47;;;;;;;19.42;7.07;;;3.50;99.90;;;;;;5027850;28;20041;-43
2022/11/05 04:38:17;;;;;;;20.15;6.60;;;3.50;99.90;;;;;;5027610;28;20151;-42
2022/11/05 04:40:44;;;;;;;17.73;6.55;;;3.60;99.90;;;;;;5027635;28;20466;-42
2022/11/05 04:43:15;;;;;;;18.73;7.05;;;3.60;99.90;;;;;;5027853;28;20489;-42
2022/11/05 04:45:41;;;;;;;20.73;6.88;;;3.60;99.90;;;;;;5027344;28;20040;-42
2022/11/05 04:48:07;;;;;;;22.08;7.35;;;3.60;99.90;;;;;;5027631;28;20044;-42
2022/11/05 04:50:32;;;;;;;33.35;7.70;;;3.60;99.90;;;;;;5027514;28;20041;-42
2022/11/05 04:52:59;;;;;;;15.65;6.40;;;3.60;99.90;;;;;;5027086;28;20045;-43
2022/11/05 04:55:25;;;;;;;21.15;7.13;;;3.60;99.90;;;;;;5027247;28;20607;-43
2022/11/05 04:57:52;;;;;;;18.02;7.00;;;3.50;99.90;;;;;;5027053;28;20079;-43
2022/11/05 05:00:19;;;;;;;30.67;8.32;;;3.50;99.90;;;;;;5026794;28;20525;-43
2022/11/05 05:02:46;;;;;;;18.63;6.47;;;3.50;99.90;;;;;;5026939;28;20053;-42
2022/11/05 05:05:12;;;;;;;23.02;7.82;;;3.50;99.90;;;;;;5027256;28;20060;-42
2022/11/05 05:07:39;;;;;;;29.35;7.72;;;3.50;99.90;;;;;;5027396;28;20394;-43
2022/11/05 05:10:06;;;;;;;17.60;6.05;;;3.50;99.90;;;;;;5027041;28;20061;-41
2022/11/05 05:12:33;;;;;;;17.15;6.63;;;3.50;99.90;;;;;;5027114;28;20050;-42
2022/11/05 05:14:58;;;;;;;30.60;8.07;;;3.50;99.90;;;;;;5027058;28;20053;-41
2022/11/05 05:17:24;;;;;;;16.15;7.22;;;3.50;99.90;;;;;;5027325;28;20053;-42
2022/11/05 05:22:34;;;;;;;20.90;7.32;;;3.50;99.90;;;;;;5027016;28;20494;-42
2022/11/05 05:25:00;;;;;;;25.55;7.57;;;3.40;99.90;;;;;;5027123;28;20049;-42
2022/11/05 05:27:30;;;;;;;22.63;6.75;;;3.40;99.90;;;;;;5027202;28;20041;-43
2022/11/05 05:29:59;;;;;;;24.58;7.72;;;3.50;99.90;;;;;;5026832;28;20621;-43
2022/11/05 05:32:25;;;;;;;21.80;7.38;;;3.50;99.90;;;;;;5027083;28;20082;-43
2022/11/05 05:34:51;;;;;;;22.55;8.07;;;3.50;99.90;;;;;;5026829;28;20045;-42
2022/11/05 05:37:17;;;;;;;20.27;7.60;;;3.50;99.90;;;;;;5025992;28;20072;-42
2022/11/05 05:39:44;;;;;;;23.83;7.38;;;3.60;99.90;;;;;;5027230;28;20080;-41
2022/11/05 05:42:11;;;;;;;37.22;8.52;;;5.30;99.90;;;;;;5025737;28;20417;-42
2022/11/05 05:44:37;;;;;;;23.95;7.53;;;3.70;99.90;;;;;;5028708;28;20057;-42
2022/11/05 05:47:03;;;;;;;24.33;7.82;;;3.70;99.90;;;;;;5031221;28;20052;-42
2022/11/05 05:49:29;;;;;;;23.80;7.93;;;3.70;99.90;;;;;;5031170;28;20045;-42
2022/11/05 05:51:55;;;;;;;21.92;7.22;;;3.70;99.90;;;;;;5030761;28;20046;-42
2022/11/05 05:54:21;;;;;;;21.30;7.90;;;3.70;99.90;;;;;;5030742;28;20054;-42
2022/11/05 05:56:47;;;;;;;21.33;9.60;;;3.70;99.90;;;;;;5030575;28;20071;-43
2022/11/05 05:59:13;;;;;;;20.40;7.63;;;3.60;99.90;;;;;;5030238;28;20419;-43
2022/11/05 06:01:39;;;;;;;28.38;8.43;;;3.60;99.90;;;;;;5030935;28;20045;-42
2022/11/05 06:04:05;;;;;;;24.98;8.27;;;3.50;99.90;;;;;;5030323;28;20045;-42
2022/11/05 06:06:30;;;;;;;32.47;9.52;;;3.50;99.90;;;;;;5030552;28;20048;-42
2022/11/05 06:08:56;;;;;;;28.63;8.25;;;3.50;99.90;;;;;;5030001;28;20071;-44
2022/11/05 06:11:25;;;;;;;22.83;7.40;;;3.50;99.90;;;;;;5030219;28;20049;-43
2022/11/05 06:13:50;;;;;;;28.17;7.97;;;3.50;99.90;;;;;;5029917;28;20050;-44
2022/11/05 06:16:18;;;;;;;29.83;8.57;;;3.40;99.90;;;;;;5030257;28;20049;-42
2022/11/05 06:18:44;;;;;;;22.55;6.95;;;3.40;99.90;;;;;;5030171;28;20052;-42
2022/11/05 06:21:13;;;;;;;31.80;8.65;;;3.40;99.90;;;;;;5030030;28;20065;-42
2022/11/05 06:23:40;;;;;;;17.27;7.22;;;3.30;99.90;;;;;;5029806;28;20576;-43
2022/11/05 06:26:09;;;;;;;24.60;8.00;;;2.80;99.90;;;;;;5029659;28;20391;-43
2022/11/05 06:28:34;;;;;;;24.60;8.23;;;3.30;99.90;;;;;;5030047;28;20038;-43
2022/11/05 06:31:00;;;;;;;26.83;8.77;;;3.30;99.90;;;;;;5030017;28;20041;-43
2022/11/05 06:33:26;;;;;;;28.58;9.10;;;3.20;99.90;;;;;;5029735;28;20042;-42
2022/11/05 06:35:53;;;;;;;30.40;9.10;;;3.20;99.90;;;;;;5029860;28;20360;-43
2022/11/05 06:38:19;;;;;;;24.13;8.05;;;3.10;99.90;;;;;;5029632;28;20454;-41
2022/11/05 06:40:45;;;;;;;31.20;8.80;;;3.20;99.90;;;;;;5029988;28;20038;-42
2022/11/05 06:43:11;;;;;;;30.17;8.85;;;3.20;99.90;;;;;;5029546;28;20041;-43
2022/11/05 06:45:36;;;;;;;19.83;8.27;;;3.20;99.90;;;;;;5030011;28;20045;-43
2022/11/05 06:48:02;;;;;;;22.63;7.97;;;3.20;99.90;;;;;;5030240;28;20049;-42
2022/11/05 06:50:28;;;;;;;28.25;9.88;;;3.20;99.90;;;;;;5030658;28;20436;-42
2022/11/05 06:52:55;;;;;;;15.50;7.78;;;3.20;99.90;;;;;;5030528;28;20077;-41
2022/11/05 06:55:21;;;;;;;28.13;9.27;;;3.20;99.90;;;;;;5028684;28;20491;-42
2022/11/05 06:57:46;;;;;;;22.75;9.00;;;3.30;99.90;;;;;;5029744;28;20095;-42
2022/11/05 07:00:13;;;;;;;39.35;9.77;;;3.30;99.90;;;;;;5029366;28;20061;-42
2022/11/05 07:02:39;;;;;;;27.08;9.55;;;3.40;99.90;;;;;;5029556;28;20045;-42
2022/11/05 07:05:06;;;;;;;22.98;9.25;;;3.40;99.90;;;;;;5028960;28;20540;-42
2022/11/05 07:07:32;;;;;;;33.30;10.80;;;3.40;99.90;;;;;;5029617;28;20052;-42
2022/11/05 07:09:57;;;;;;;16.17;8.25;;;3.40;99.90;;;;;;5029132;28;20044;-41
2022/11/05 07:12:23;;;;;;;21.17;8.77;;;5.00;99.90;;;;;;5029273;28;20391;-43
2022/11/05 07:14:49;;;;;;;21.70;8.52;;;3.50;99.90;;;;;;5029187;28;20072;-43
2022/11/05 07:17:17;;;;;;;28.40;10.13;;;3.50;99.90;;;;;;5028879;28;20078;-43
2022/11/05 07:19:43;;;;;;;21.95;8.95;;;3.50;99.90;;;;;;5029191;28;20052;-42
2022/11/05 07:22:08;;;;;;;32.85;11.32;;;3.60;99.90;;;;;;5028929;28;20041;-41
2022/11/05 07:24:34;;;;;;;40.45;12.82;;;3.60;99.90;;;;;;5029037;28;20049;-42
2022/11/05 07:27:00;;;;;;;29.42;12.40;;;3.60;99.90;;;;;;5044081;28;20045;-42
2022/11/05 07:29:25;;;;;;;30.45;10.45;;;3.70;99.90;;;;;;5029074;28;20067;-44
2022/11/05 07:31:51;;;;;;;38.03;11.80;;;3.70;99.90;;;;;;5029031;28;20046;-41
2022/11/05 07:34:16;;;;;;;34.97;11.30;;;3.60;99.90;;;;;;5028405;28;20167;-43
2022/11/05 07:36:42;;;;;;;26.23;9.27;;;3.80;99.90;;;;;;5028670;28;20068;-42
2022/11/05 07:39:08;;;;;;;25.85;9.70;;;3.90;99.90;;;;;;5028195;28;20041;-42
2022/11/05 07:41:34;;;;;;;19.45;8.68;;;4.00;99.90;;;;;;5028694;28;20048;-43
2022/11/05 07:44:00;;;;;;;17.55;8.38;;;4.00;99.90;;;;;;5028311;28;20399;-42
2022/11/05 07:46:25;;;;;;;28.90;9.60;;;4.10;99.90;;;;;;5029002;28;20049;-44
2022/11/05 07:48:51;;;;;;;19.05;8.65;;;4.10;99.90;;;;;;5029043;28;20124;-41
2022/11/05 07:51:17;;;;;;;61.28;14.43;;;4.20;99.90;;;;;;5028867;28;20072;-42
2022/11/05 07:53:42;;;;;;;22.23;9.32;;;4.20;99.90;;;;;;5028814;28;20920;-42
2022/11/05 07:56:10;;;;;;;15.65;8.43;;;4.30;99.90;;;;;;5028904;28;20379;-43
2022/11/05 07:58:37;;;;;;;23.58;9.55;;;4.30;99.90;;;;;;5028413;28;20052;-43
2022/11/05 08:01:03;;;;;;;25.40;10.52;;;4.50;99.90;;;;;;5027742;28;20083;-42
2022/11/05 08:03:28;;;;;;;33.55;10.10;;;4.50;99.90;;;;;;5028032;28;20514;-42
2022/11/05 08:05:54;;;;;;;18.85;9.27;;;4.70;99.90;;;;;;5028038;28;20041;-42
2022/11/05 08:08:20;;;;;;;21.83;10.50;;;4.80;99.90;;;;;;5028090;28;20116;-43
2022/11/05 08:10:46;;;;;;;24.35;11.60;;;5.00;99.90;;;;;;5028393;28;20033;-42
2022/11/05 08:13:12;;;;;;;36.85;12.13;;;5.00;99.90;;;;;;5028137;28;20047;-42
2022/11/05 08:15:38;;;;;;;19.85;9.30;;;5.20;99.90;;;;;;5028054;28;20094;-42
2022/11/05 08:18:06;;;;;;;28.08;10.65;;;5.30;99.90;;;;;;5027615;28;20045;-42
2022/11/05 08:20:33;;;;;;;30.60;12.07;;;5.40;99.90;;;;;;5028055;28;20045;-42
2022/11/05 08:22:59;;;;;;;20.08;10.05;;;6.10;99.90;;;;;;5028133;28;20735;-42
2022/11/05 08:25:25;;;;;;;31.52;12.63;;;5.90;99.90;;;;;;5027464;28;20452;-44
2022/11/05 08:27:56;;;;;;;18.67;10.65;;;5.70;99.90;;;;;;5027568;28;20087;-42
2022/11/05 08:30:22;;;;;;;28.33;12.20;;;5.60;99.90;;;;;;5027759;28;20047;-42
2022/11/05 08:32:47;;;;;;;32.22;12.80;;;5.90;99.90;;;;;;5027744;28;20041;-42
2022/11/05 08:35:13;;;;;;;20.83;10.80;;;6.00;99.90;;;;;;5027474;28;20045;-43
2022/11/05 08:37:38;;;;;;;24.95;11.55;;;6.10;99.90;;;;;;5026270;28;20119;-44
2022/11/05 08:40:05;;;;;;;27.35;13.27;;;6.20;99.90;;;;;;5027212;28;20124;-44
2022/11/05 08:42:30;;;;;;;13.88;10.00;;;6.30;99.90;;;;;;5027437;28;20217;-42
2022/11/05 08:44:56;;;;;;;21.70;11.68;;;6.30;99.90;;;;;;5027516;28;20045;-41
2022/11/05 08:47:22;;;;;;;30.58;13.05;;;6.20;99.90;;;;;;5027382;28;20052;-43
2022/11/05 08:49:48;;;;;;;15.45;10.35;;;6.60;99.90;;;;;;5027118;28;20616;-42
2022/11/05 08:52:13;;;;;;;25.95;12.57;;;7.30;99.90;;;;;;5027442;28;20054;-42
2022/11/05 08:54:39;;;;;;;18.40;11.25;;;6.70;99.90;;;;;;5027364;28;20064;-42
2022/11/05 08:57:04;;;;;;;23.02;9.95;;;6.90;99.90;;;;;;5027541;28;20033;-42
2022/11/05 08:59:30;;;;;;;15.55;9.95;;;6.70;99.90;;;;;;5027578;28;20041;-42
2022/11/05 09:01:56;;;;;;;23.67;11.27;;;6.90;99.90;;;;;;5027458;28;20494;-43
2022/11/05 09:04:22;;;;;;;23.60;12.43;;;6.90;99.90;;;;;;5027582;28;20081;-42
2022/11/05 09:06:47;;;;;;;28.17;13.43;;;7.20;99.90;;;;;;5028058;28;20665;-44
2022/11/05 09:09:13;;;;;;;17.88;12.10;;;7.90;99.90;;;;;;5027576;28;20491;-43
2022/11/05 09:11:39;;;;;;;17.38;9.80;;;7.30;99.90;;;;;;5027660;28;20422;-42
2022/11/05 09:14:04;;;;;;;18.23;11.02;;;7.50;99.90;;;;;;5027357;28;20441;-42
2022/11/05 09:16:33;;;;;;;17.88;10.90;;;7.50;99.90;;;;;;5027437;28;20573;-41
2022/11/05 09:18:59;;;;;;;20.98;12.13;;;7.70;99.90;;;;;;5026616;28;20052;-42
2022/11/05 09:21:24;;;;;;;19.95;11.77;;;8.50;99.90;;;;;;5027060;28;20037;-42
2022/11/05 09:23:50;;;;;;;30.73;13.35;;;7.90;99.90;;;;;;5026992;28;20073;-44
2022/11/05 09:26:16;;;;;;;22.17;12.55;;;8.00;99.90;;;;;;5027084;28;20045;-42
2022/11/05 09:28:42;;;;;;;22.17;11.98;;;8.00;99.90;;;;;;5027089;28;20128;-42
2022/11/05 09:31:09;;;;;;;21.65;11.35;;;8.10;99.90;;;;;;5026937;28;20442;-43
2022/11/05 09:33:37;;;;;;;21.80;10.73;;;9.00;99.90;;;;;;5027526;28;20053;-42
2022/11/05 09:36:03;;;;;;;25.17;12.18;;;8.20;99.90;;;;;;5027168;28;20080;-41
2022/11/05 09:38:31;;;;;;;19.08;11.02;;;8.30;99.90;;;;;;5026651;28;20121;-44
2022/11/05 09:41:04;;;;;;;21.52;10.27;;;9.10;99.90;;;;;;5026744;28;20372;-42
2022/11/05 09:43:35;;;;;;;14.05;8.75;;;8.50;99.90;;;;;;5026310;28;20037;-42
2022/11/05 09:46:10;;;;;;;17.80;9.00;;;8.60;99.90;;;;;;5026829;28;20048;-42
2022/11/05 09:48:37;;;;;;;17.55;9.50;;;8.60;99.90;;;;;;5026540;28;20048;-43
2022/11/05 09:51:04;;;;;;;21.27;10.75;;;8.70;99.90;;;;;;5013871;28;20042;-41
2022/11/05 09:53:30;;;;;;;9.82;7.32;;;8.70;99.90;;;;;;5023316;28;20069;-43
2022/11/05 09:55:58;;;;;;;23.30;10.60;;;8.90;99.90;;;;;;5023705;28;20861;-43
2022/11/05 09:58:39;;;;;;;17.10;8.07;;;9.20;99.90;;;;;;5023780;28;20108;-42
2022/11/05 10:01:18;;;;;;;13.35;7.68;;;9.30;99.90;;;;;;5024092;28;20111;-42
2022/11/05 10:03:47;;;;;;;13.18;7.72;;;9.00;99.90;;;;;;5023721;28;20053;-42
2022/11/05 10:06:19;;;;;;;11.32;7.30;;;8.80;99.90;;;;;;5023989;28;20048;-42
2022/11/05 10:09:08;;;;;;;13.40;7.55;;;9.30;99.90;;;;;;5023939;28;20041;-43
2022/11/05 10:11:43;;;;;;;12.82;7.60;;;9.10;99.90;;;;;;5023218;28;20494;-43
2022/11/05 10:14:27;;;;;;;12.88;7.22;;;9.10;99.90;;;;;;5023892;28;20053;-43
2022/11/05 10:16:59;;;;;;;9.90;7.05;;;9.30;99.90;;;;;;5024116;28;20041;-44
2022/11/05 10:19:31;;;;;;;14.52;8.25;;;10.10;99.90;;;;;;5022051;28;20441;-42
2022/11/05 10:22:09;;;;;;;12.30;7.28;;;9.40;99.90;;;;;;5024253;28;20053;-43
2022/11/05 10:24:42;;;;;;;11.70;6.85;;;9.50;99.90;;;;;;5023539;28;20045;-42
2022/11/05 10:27:14;;;;;;;12.00;6.45;;;9.50;99.90;;;;;;5024363;28;20485;-44
2022/11/05 10:29:42;;;;;;;10.90;7.53;;;9.60;99.90;;;;;;5022745;28;20151;-41
2022/11/05 10:32:12;;;;;;;13.25;6.93;;;9.90;99.90;;;;;;5022687;28;20049;-42
2022/11/05 10:34:38;;;;;;;15.52;8.00;;;9.70;99.90;;;;;;5022513;28;20834;-41
2022/11/05 10:37:04;;;;;;;14.63;6.50;;;9.70;99.90;;;;;;5026111;28;20048;-48
2022/11/05 10:39:33;;;;;;;12.07;7.28;;;9.80;99.90;;;;;;5025888;28;20391;-48
2022/11/05 10:41:59;;;;;;;11.73;5.43;;;8.70;99.90;;;;;;5026531;28;20064;-47
2022/11/05 10:44:27;;;;;;;11.60;6.15;;;9.80;99.90;;;;;;5025846;28;20674;-52
2022/11/05 10:47:11;;;;;;;11.18;5.35;;;9.90;99.90;;;;;;5024797;28;20955;-56
2022/11/05 10:49:46;;;;;;;10.40;4.85;;;9.90;99.90;;;;;;5023625;28;20537;-44
2022/11/05 10:52:23;;;;;;;10.48;4.40;;;10.00;99.90;;;;;;5024360;28;20826;-45
2022/11/05 10:54:51;;;;;;;10.10;4.93;;;10.00;99.90;;;;;;5026431;28;20060;-45
2022/11/05 10:57:29;;;;;;;11.93;4.95;;;10.10;99.90;;;;;;5026310;28;20076;-48
2022/11/05 11:00:20;;;;;;;11.98;5.65;;;10.10;99.90;;;;;;5025669;28;20042;-45
2022/11/05 11:02:58;;;;;;;15.15;4.70;;;10.10;99.90;;;;;;5024886;28;20045;-44
2022/11/05 11:05:31;;;;;;;12.30;4.07;;;10.80;99.90;;;;;;5026297;28;20096;-45
2022/11/05 11:08:21;;;;;;;14.80;5.65;;;10.00;99.90;;;;;;5026657;28;20434;-46
2022/11/05 11:10:53;;;;;;;7.55;3.72;;;10.10;99.90;;;;;;5026476;28;20483;-47
2022/11/05 11:13:24;;;;;;;10.05;4.80;;;10.10;99.90;;;;;;5026848;28;20048;-45
2022/11/05 11:15:50;;;;;;;11.38;4.63;;;10.10;99.90;;;;;;5026974;28;20039;-46
2022/11/05 11:18:37;;;;;;;9.55;5.43;;;10.10;99.90;;;;;;5022623;28;20053;-46
2022/11/05 11:21:15;;;;;;;10.52;4.38;;;10.10;99.90;;;;;;5026448;28;20517;-48
2022/11/05 11:23:52;;;;;;;9.73;5.60;;;10.00;99.90;;;;;;5025307;28;20046;-44
2022/11/05 11:26:18;;;;;;;9.48;5.75;;;10.00;99.90;;;;;;5024405;28;20156;-44
2022/11/05 11:28:49;;;;;;;14.68;6.70;;;10.00;99.90;;;;;;5007732;28;20503;-49
2022/11/05 11:31:20;;;;;;;10.13;4.50;;;9.90;99.90;;;;;;5025612;28;20135;-49
2022/11/05 11:33:52;;;;;;;10.55;4.15;;;10.20;99.90;;;;;;5025525;28;20049;-48
2022/11/05 11:36:25;;;;;;;9.23;4.90;;;9.90;99.90;;;;;;5025071;28;20566;-47
2022/11/05 11:38:57;;;;;;;;;;;9.90;99.90;;;;;;5025967;28;20037;-50
2022/11/05 11:41:29;;;;;;;7.43;4.25;;;10.20;99.90;;;;;;5024955;28;20063;-49
2022/11/05 11:44:01;;;;;;;15.93;5.15;;;10.40;99.90;;;;;;5025458;28;20060;-50
2022/11/05 11:46:31;;;;;;;7.63;3.47;;;10.30;99.90;;;;;;5025428;28;20043;-51
2022/11/05 11:48:57;;;;;;;11.38;4.35;;;10.50;99.90;;;;;;5025009;28;20184;-46
2022/11/05 11:51:30;;;;;;;7.68;3.30;;;10.60;99.90;;;;;;5024674;28;20160;-48
2022/11/05 11:53:58;;;;;;;9.52;2.92;;;12.20;99.90;;;;;;5025318;28;20045;-46
2022/11/05 11:56:24;;;;;;;7.10;3.20;;;10.40;99.90;;;;;;5025342;28;20114;-49
2022/11/05 11:58:56;;;;;;;5.78;2.70;;;10.60;99.90;;;;;;5025489;28;20612;-51
2022/11/05 12:02:05;;;;;;;9.38;3.60;;;10.90;99.90;;;;;;5039784;28;20053;-48
2022/11/05 12:04:56;;;;;;;9.23;3.25;;;10.80;99.90;;;;;;5043691;28;20132;-46
2022/11/05 12:07:39;;;;;;;7.10;3.60;;;10.90;99.90;;;;;;5045288;28;20057;-44
2022/11/05 12:10:43;;;;;;;8.63;3.60;;;10.80;99.90;;;;;;5044195;28;20089;-46
2022/11/05 12:13:17;;;;;;;9.88;3.90;;;10.60;99.90;;;;;;5045229;28;20053;-45
2022/11/05 12:15:49;;;;;;;8.43;2.83;;;10.50;99.90;;;;;;5044719;28;20790;-46
2022/11/05 12:18:48;;;;;;;6.57;2.75;;;10.50;99.90;;;;;;5045058;28;20041;-45
2022/11/05 12:21:19;;;;;;;4.80;1.90;;;10.30;99.90;;;;;;5042180;28;20064;-46
2022/11/05 12:23:57;;;;;;;3.75;2.03;;;10.30;99.90;;;;;;5043179;28;20053;-52
2022/11/05 12:27:00;;;;;;;9.20;2.45;;;10.30;99.90;;;;;;5025974;28;20545;-49
2022/11/05 12:29:54;;;;;;;8.40;2.25;;;10.30;99.90;;;;;;5034380;28;20062;-48
2022/11/05 12:32:25;;;;;;;4.75;1.75;;;10.40;99.90;;;;;;5048632;28;20045;-58
2022/11/05 12:34:57;;;;;;;9.10;1.90;;;10.20;99.90;;;;;;5048581;28;20041;-43
2022/11/05 12:37:44;;;;;;;7.18;2.30;;;10.40;99.90;;;;;;5046480;28;20040;-42
2022/11/05 12:40:28;;;;;;;6.60;1.75;;;10.50;99.90;;;;;;5048101;28;20387;-42
2022/11/05 12:43:11;;;;;;;4.82;1.45;;;10.60;99.90;;;;;;5047630;28;20499;-42
2022/11/05 12:45:58;;;;;;;4.53;1.55;;;10.70;99.90;;;;;;5047638;28;20079;-43
2022/11/05 12:48:37;;;;;;;5.45;1.73;;;10.70;99.90;;;;;;5048215;28;20051;-42
2022/11/05 12:51:20;;;;;;;3.97;1.40;;;10.80;99.90;;;;;;5047044;28;20498;-44
2022/11/05 12:54:14;;;;;;;6.95;1.73;;;11.30;99.90;;;;;;5044872;28;20045;-42
2022/11/05 12:56:56;;;;;;;5.65;1.95;;;10.80;99.90;;;;;;5048132;28;20041;-41
2022/11/05 12:59:35;;;;;;;5.97;2.70;;;10.90;99.90;;;;;;5047762;28;20079;-43
2022/11/05 13:02:13;;;;;;;7.95;2.88;;;10.90;99.90;;;;;;5047229;28;20071;-42
2022/11/05 13:04:49;;;;;;;7.40;2.33;;;11.50;99.90;;;;;;5048095;28;20091;-41
2022/11/05 13:07:19;;;;;;;8.93;3.33;;;11.00;99.90;;;;;;5048401;28;20064;-41
2022/11/05 13:10:23;;;;;;;6.95;2.20;;;11.00;99.90;;;;;;5047573;28;20052;-42
2022/11/05 13:13:16;;;;;;;4.55;2.17;;;11.10;99.90;;;;;;5025747;28;20056;-42
2022/11/05 13:15:50;;;;;;;4.80;1.67;;;11.00;99.90;;;;;;5047007;28;20078;-43
2022/11/05 13:18:22;;;;;;;7.70;1.90;;;11.00;99.90;;;;;;5047846;28;20127;-43
2022/11/05 13:20:49;;;;;;;;;;;11.00;99.90;;;;;;5048196;28;20790;-43
2022/11/05 13:23:27;;;;;;;5.60;2.50;;;11.00;99.90;;;;;;5047864;28;19927;-41
2022/11/05 13:26:05;;;;;;;6.47;1.98;;;11.00;99.90;;;;;;5047153;28;20130;-42
2022/11/05 13:29:02;;;;;;;5.75;2.38;;;11.00;99.90;;;;;;5048184;28;20120;-42
2022/11/05 13:31:37;;;;;;;7.20;2.17;;;10.90;99.90;;;;;;5048096;28;20417;-43
2022/11/05 13:34:10;;;;;;;5.43;2.80;;;10.90;99.90;;;;;;5047648;28;20494;-42
2022/11/05 13:39:44;;;;;;;8.82;4.00;;;10.80;99.90;;;;;;5047116;28;20502;-43
2022/11/05 13:42:35;;;;;;;8.45;3.70;;;10.90;99.90;;;;;;5046753;28;20555;-41
2022/11/05 13:45:24;;;;;;;8.05;3.92;;;10.80;99.90;;;;;;5047347;28;20406;-42
2022/11/05 13:48:35;;;;;;;11.68;4.75;;;10.80;99.90;;;;;;5047468;28;20080;-42